Burnham, Illinois
Current Conditions -  °F | °C
As of 12:35 AM on Saturday 20 Dec 2014 (Local Time) from KGYY Reporting Station
Overcast Overcast  
Wind Chill:   Ceiling: 2700
Heat Index:   Visibility: 10mi
Dew Point: -7°   Wind: 3mph
Humidity: 59%   Direction: 190°S
Pressure: 30.28"   Gusts: NA
Location:  41.6563°N, 87.5444°W
Report Text: KGYY 200635Z AUTO 19003KT 10SM OVC027 01/M06 A3028 RMK AO2 T00061065
Loading
Personal Weather Stations






























Interactive Weather Map New forecast layout! Learn more

10-Day Weather Forecast

Advertisements
Track Severe Weather on mobile